Time;durP1;ratioP1;P1;durP2;ratioP2;P2;SDS_P1;SDS_P2;PMS_P1;PMS_P2;Temp;Humidity;BMP_temperature;BMP_pressure;BME280_temperature;BME280_humidity;BME280_pressure;Samples;Min_cycle;Max_cycle;Signal;HPM_P1;HPM_P2
2021/03/07 00:00:22;;;;;;;17.02;9.40;;;0.00;99.90;;;;;;5071827;28;20198;-64
2021/03/07 00:02:49;;;;;;;14.73;10.52;;;0.00;99.90;;;;;;5055636;28;20264;-65
2021/03/07 00:05:17;;;;;;;17.55;10.52;;;0.00;99.90;;;;;;5072558;28;20614;-65
2021/03/07 00:07:43;;;;;;;16.23;9.55;;;-0.10;99.90;;;;;;5070850;28;20678;-63
2021/03/07 00:10:15;;;;;;;13.35;9.25;;;-0.10;99.90;;;;;;5071480;28;20276;-63
2021/03/07 00:12:42;;;;;;;17.08;10.52;;;0.00;99.90;;;;;;5070803;28;20206;-65
2021/03/07 00:15:11;;;;;;;15.93;9.80;;;0.00;99.90;;;;;;5089972;28;20546;-63
2021/03/07 00:17:38;;;;;;;16.65;9.70;;;-0.10;99.90;;;;;;5075169;28;20329;-63
2021/03/07 00:20:07;;;;;;;14.70;9.23;;;-0.10;99.90;;;;;;5080086;28;20201;-64
2021/03/07 00:22:36;;;;;;;16.00;10.48;;;-0.20;99.90;;;;;;5071483;28;20226;-64
2021/03/07 00:25:04;;;;;;;14.98;9.43;;;-0.20;99.90;;;;;;5066914;28;20198;-66
2021/03/07 00:27:31;;;;;;;15.27;10.18;;;-0.20;99.90;;;;;;5072489;28;20309;-64
2021/03/07 00:29:57;;;;;;;14.35;8.38;;;-0.20;99.90;;;;;;5079695;28;20191;-65
2021/03/07 00:32:24;;;;;;;13.93;9.30;;;-0.20;99.90;;;;;;5081284;28;20209;-64
2021/03/07 00:34:52;;;;;;;17.48;10.40;;;-0.20;99.90;;;;;;5059585;28;20202;-64
2021/03/07 00:37:18;;;;;;;16.98;9.38;;;-0.30;99.90;;;;;;5061002;28;20292;-64
2021/03/07 00:39:45;;;;;;;14.00;8.43;;;-0.20;99.90;;;;;;5067598;28;20198;-64
2021/03/07 00:42:11;;;;;;;18.38;11.57;;;-0.30;99.90;;;;;;5068810;28;20204;-65
2021/03/07 00:44:38;;;;;;;14.98;9.90;;;-0.30;99.90;;;;;;5067955;28;20236;-64
2021/03/07 00:47:04;;;;;;;13.95;9.25;;;-0.30;99.90;;;;;;5052309;28;20717;-64
2021/03/07 00:49:32;;;;;;;19.27;10.85;;;-0.30;99.90;;;;;;5065588;28;20194;-63
2021/03/07 00:52:00;;;;;;;14.82;9.85;;;-0.30;99.90;;;;;;5070643;28;20203;-63
2021/03/07 00:54:27;;;;;;;17.63;10.88;;;-0.30;99.90;;;;;;5068547;28;20203;-64
2021/03/07 00:56:53;;;;;;;15.48;10.13;;;-0.40;99.90;;;;;;5069017;28;20195;-64
2021/03/07 00:59:20;;;;;;;16.80;10.10;;;-0.40;99.90;;;;;;5069307;28;20596;-64
2021/03/07 01:01:46;;;;;;;15.43;9.27;;;-0.40;99.90;;;;;;5065390;28;20656;-65
2021/03/07 01:04:13;;;;;;;18.08;10.25;;;-0.40;99.90;;;;;;5069143;28;20205;-66
2021/03/07 01:06:40;;;;;;;17.27;9.63;;;-0.40;99.90;;;;;;5069368;28;20664;-64
2021/03/07 01:09:07;;;;;;;16.80;9.98;;;-0.40;99.90;;;;;;5069848;28;20209;-65
2021/03/07 01:11:34;;;;;;;17.55;9.65;;;-0.40;99.90;;;;;;5070050;28;20235;-64
2021/03/07 01:14:01;;;;;;;15.70;10.23;;;-0.40;99.90;;;;;;5069611;28;20213;-64
2021/03/07 01:16:28;;;;;;;18.45;10.52;;;-0.40;99.90;;;;;;5069081;28;20229;-64
2021/03/07 01:18:54;;;;;;;15.25;9.38;;;-0.40;99.90;;;;;;5068890;28;20310;-64
2021/03/07 01:21:21;;;;;;;15.60;9.32;;;-0.50;99.90;;;;;;5067084;28;20673;-66
2021/03/07 01:23:47;;;;;;;14.25;9.32;;;-0.50;99.90;;;;;;5068523;28;20570;-65
2021/03/07 01:26:15;;;;;;;18.45;10.50;;;-0.50;99.90;;;;;;5065236;28;20205;-64
2021/03/07 01:28:41;;;;;;;14.27;9.77;;;-0.60;99.90;;;;;;5070431;28;20282;-65
2021/03/07 01:31:08;;;;;;;16.55;9.40;;;-0.60;99.90;;;;;;5071884;28;20596;-65
2021/03/07 01:33:34;;;;;;;13.63;10.20;;;-0.60;99.90;;;;;;5071354;28;20203;-64
2021/03/07 01:36:03;;;;;;;16.95;10.15;;;-0.60;99.90;;;;;;5063511;28;20208;-63
2021/03/07 01:38:30;;;;;;;15.45;9.45;;;-0.60;99.90;;;;;;5071486;28;20210;-64
2021/03/07 01:40:56;;;;;;;16.35;9.30;;;-0.60;99.90;;;;;;5072429;28;20261;-65
2021/03/07 01:43:25;;;;;;;12.88;7.88;;;-0.60;99.90;;;;;;5072192;28;20198;-65
2021/03/07 01:45:51;;;;;;;17.05;9.35;;;-0.60;99.90;;;;;;5071916;28;20277;-64
2021/03/07 01:48:18;;;;;;;14.32;9.15;;;-0.60;99.90;;;;;;5070509;28;20198;-64
2021/03/07 01:50:47;;;;;;;17.17;10.93;;;-0.60;99.90;;;;;;5064823;28;20197;-68
2021/03/07 01:53:15;;;;;;;21.17;9.70;;;-0.60;99.90;;;;;;5062056;28;20199;-68
2021/03/07 01:55:43;;;;;;;14.45;9.00;;;-0.60;99.90;;;;;;5068331;28;20299;-66
2021/03/07 01:58:13;;;;;;;16.88;10.63;;;-0.60;99.90;;;;;;5070556;28;20225;-65
2021/03/07 02:00:41;;;;;;;14.18;8.48;;;-0.60;99.90;;;;;;5068410;28;20210;-66
2021/03/07 02:03:07;;;;;;;12.82;9.48;;;-0.50;99.90;;;;;;5065346;28;20198;-68
2021/03/07 02:05:34;;;;;;;16.17;10.68;;;-0.60;99.90;;;;;;5071342;28;20277;-67
2021/03/07 02:08:01;;;;;;;13.52;9.32;;;-0.60;99.90;;;;;;5067449;28;20209;-65
2021/03/07 02:10:30;;;;;;;17.25;11.15;;;-0.60;99.90;;;;;;5070826;28;20190;-65
2021/03/07 02:13:02;;;;;;;12.48;8.63;;;-0.70;99.90;;;;;;5071561;28;20214;-68
2021/03/07 02:15:31;;;;;;;14.70;8.55;;;-0.60;99.90;;;;;;5072813;28;20243;-69
2021/03/07 02:17:59;;;;;;;14.10;9.02;;;-0.60;99.90;;;;;;5072186;28;20228;-63
2021/03/07 02:20:27;;;;;;;14.52;8.65;;;-0.60;99.90;;;;;;5071092;28;20198;-63
2021/03/07 02:22:59;;;;;;;14.77;8.75;;;-0.60;99.90;;;;;;5072095;28;20199;-64
2021/03/07 02:25:28;;;;;;;15.23;9.10;;;-0.60;99.90;;;;;;5070511;28;20344;-64
2021/03/07 02:27:55;;;;;;;14.25;8.88;;;-0.70;99.90;;;;;;5069378;28;20272;-64
2021/03/07 02:30:24;;;;;;;12.48;8.95;;;-0.70;99.90;;;;;;5070255;28;20558;-64
2021/03/07 02:32:56;;;;;;;15.68;9.02;;;-0.70;99.90;;;;;;5069867;28;20195;-68
2021/03/07 02:35:25;;;;;;;13.65;9.23;;;-0.70;99.90;;;;;;5071432;28;20200;-66
2021/03/07 02:37:56;;;;;;;14.05;8.48;;;-0.70;99.90;;;;;;5070813;28;20639;-65
2021/03/07 02:40:27;;;;;;;12.63;8.02;;;-0.70;99.90;;;;;;5070771;28;20325;-71
2021/03/07 02:42:56;;;;;;;12.65;8.55;;;-0.80;99.90;;;;;;5070034;28;20204;-70
2021/03/07 02:45:24;;;;;;;12.95;8.50;;;-0.80;99.90;;;;;;5071002;28;20658;-64
2021/03/07 02:47:53;;;;;;;11.80;8.15;;;-0.80;99.90;;;;;;5069182;28;20198;-63
2021/03/07 02:50:22;;;;;;;15.35;9.00;;;-0.80;99.90;;;;;;5071146;28;20268;-66
2021/03/07 02:52:52;;;;;;;13.15;9.15;;;-0.70;99.90;;;;;;5070380;28;20291;-66
2021/03/07 02:55:20;;;;;;;12.95;8.88;;;-0.80;99.90;;;;;;5070938;28;20202;-65
2021/03/07 02:57:48;;;;;;;12.35;8.40;;;-0.90;99.90;;;;;;5070364;28;20225;-65
2021/03/07 03:00:16;;;;;;;14.35;8.23;;;-0.90;99.90;;;;;;5068807;28;20193;-65
2021/03/07 03:02:46;;;;;;;14.27;8.45;;;-0.90;99.90;;;;;;5070015;28;20786;-67
2021/03/07 03:05:13;;;;;;;15.43;9.90;;;-0.90;99.90;;;;;;5071465;28;20281;-68
2021/03/07 03:07:42;;;;;;;19.33;10.00;;;-0.90;99.90;;;;;;5070437;28;20293;-68
2021/03/07 03:10:11;;;;;;;15.13;9.82;;;-1.00;99.90;;;;;;5069824;28;20201;-66
2021/03/07 03:12:40;;;;;;;15.60;10.00;;;-1.00;99.90;;;;;;5068525;28;20647;-69
2021/03/07 03:15:10;;;;;;;16.95;9.38;;;-1.00;99.90;;;;;;5071444;28;20275;-67
2021/03/07 03:17:38;;;;;;;15.10;9.50;;;-1.00;99.90;;;;;;5071202;28;20225;-67
2021/03/07 03:20:08;;;;;;;14.77;9.68;;;-0.90;99.90;;;;;;5068343;28;20198;-71
2021/03/07 03:22:35;;;;;;;15.05;9.63;;;-0.90;99.90;;;;;;5069850;28;20196;-65
2021/03/07 03:25:01;;;;;;;17.45;9.75;;;-0.90;99.90;;;;;;5069431;28;20594;-67
2021/03/07 03:27:28;;;;;;;11.82;9.15;;;-0.90;99.90;;;;;;5070277;28;20193;-66
2021/03/07 03:29:55;;;;;;;13.93;9.57;;;-0.90;99.90;;;;;;5066984;28;20262;-65
2021/03/07 03:32:22;;;;;;;13.68;10.68;;;-1.00;99.90;;;;;;5069870;28;20711;-66
2021/03/07 03:34:49;;;;;;;15.80;11.02;;;-1.00;99.90;;;;;;5067534;28;20210;-63
2021/03/07 03:37:15;;;;;;;16.02;10.07;;;-1.00;99.90;;;;;;5058945;28;20280;-65
2021/03/07 03:39:45;;;;;;;20.02;9.85;;;-1.00;99.90;;;;;;5068895;28;20220;-64
2021/03/07 03:42:12;;;;;;;16.73;10.70;;;-0.90;99.90;;;;;;5068893;28;20510;-65
2021/03/07 03:44:40;;;;;;;17.42;10.48;;;-1.00;99.90;;;;;;5070053;28;20276;-63
2021/03/07 03:47:11;;;;;;;17.77;9.98;;;-1.00;99.90;;;;;;5069767;28;20211;-65
2021/03/07 03:49:46;;;;;;;18.67;12.65;;;-1.00;99.90;;;;;;5069439;28;20631;-66
2021/03/07 03:52:14;;;;;;;16.63;10.35;;;-1.00;99.90;;;;;;5070856;28;20596;-65
2021/03/07 03:54:44;;;;;;;15.05;10.30;;;-1.10;99.90;;;;;;5079252;28;20197;-64
2021/03/07 03:57:13;;;;;;;13.18;9.45;;;-1.20;99.90;;;;;;5069398;28;20333;-63
2021/03/07 03:59:43;;;;;;;18.02;10.50;;;-1.10;99.90;;;;;;5069277;28;20736;-65
2021/03/07 04:02:12;;;;;;;14.15;10.20;;;-1.10;99.90;;;;;;5069845;28;20207;-64
2021/03/07 04:04:40;;;;;;;20.60;11.20;;;-1.10;99.90;;;;;;5070084;28;20276;-65
2021/03/07 04:07:07;;;;;;;16.48;10.52;;;-1.10;99.90;;;;;;5069165;28;20654;-65
2021/03/07 04:09:35;;;;;;;16.50;11.60;;;-1.10;99.90;;;;;;5068678;28;20205;-66
2021/03/07 04:12:02;;;;;;;14.25;10.10;;;-1.20;99.90;;;;;;5068855;28;20202;-66
2021/03/07 04:14:29;;;;;;;17.77;11.75;;;-1.20;99.90;;;;;;5069025;28;20581;-66
2021/03/07 04:16:56;;;;;;;17.63;11.25;;;-1.20;99.90;;;;;;5069550;28;20262;-64
2021/03/07 04:19:25;;;;;;;15.80;11.45;;;-1.20;99.90;;;;;;5068678;28;20299;-64
2021/03/07 04:21:53;;;;;;;16.42;10.27;;;-1.20;99.90;;;;;;5070722;28;20189;-66
2021/03/07 04:24:20;;;;;;;16.60;10.38;;;-1.20;99.90;;;;;;5069707;28;20200;-65
2021/03/07 04:26:47;;;;;;;15.75;10.27;;;-1.30;99.90;;;;;;5068341;28;20289;-64
2021/03/07 04:29:14;;;;;;;13.85;10.02;;;-1.20;99.90;;;;;;5068917;28;20219;-64
2021/03/07 04:31:41;;;;;;;16.50;10.45;;;-1.30;99.90;;;;;;5069845;28;20210;-67
2021/03/07 04:34:08;;;;;;;15.77;10.60;;;-1.30;99.90;;;;;;5069371;28;20196;-65
2021/03/07 04:36:35;;;;;;;13.00;10.75;;;-1.20;99.90;;;;;;5069083;28;20237;-66
2021/03/07 04:39:04;;;;;;;16.00;10.77;;;-1.20;99.90;;;;;;5067559;28;20278;-62
2021/03/07 04:41:31;;;;;;;15.30;9.98;;;-1.20;99.90;;;;;;5068507;28;20285;-61
2021/03/07 04:43:57;;;;;;;18.30;10.68;;;-1.20;99.90;;;;;;5068594;28;20281;-66
2021/03/07 04:46:26;;;;;;;15.65;10.95;;;-1.20;99.90;;;;;;5065818;28;20616;-67
2021/03/07 04:48:53;;;;;;;18.40;10.73;;;-1.10;99.90;;;;;;5067203;28;20193;-62
2021/03/07 04:51:20;;;;;;;14.60;10.68;;;-1.20;99.90;;;;;;5070069;28;20244;-66
2021/03/07 04:53:47;;;;;;;16.23;11.15;;;-1.30;99.90;;;;;;5069854;28;20196;-68
2021/03/07 04:56:14;;;;;;;19.45;11.77;;;-1.30;99.90;;;;;;5068332;28;20284;-65
2021/03/07 04:58:41;;;;;;;14.30;9.70;;;-1.20;99.90;;;;;;5068495;28;20737;-64
2021/03/07 05:01:08;;;;;;;16.33;10.23;;;-1.20;99.90;;;;;;5071137;28;20189;-62
2021/03/07 05:03:35;;;;;;;16.17;11.60;;;-1.30;99.90;;;;;;5071582;28;20202;-64
2021/03/07 05:06:01;;;;;;;17.30;11.35;;;-1.30;99.90;;;;;;5073212;28;20288;-68
2021/03/07 05:08:29;;;;;;;17.15;12.00;;;-1.30;99.90;;;;;;5070651;28;20202;-63
2021/03/07 05:10:56;;;;;;;17.20;11.00;;;-1.30;99.90;;;;;;5072979;28;20212;-66
2021/03/07 05:13:23;;;;;;;18.95;10.70;;;-1.30;99.90;;;;;;5073075;28;20193;-63
2021/03/07 05:15:51;;;;;;;14.68;10.40;;;-1.30;99.90;;;;;;5072287;28;20201;-66
2021/03/07 05:18:17;;;;;;;20.33;12.15;;;-1.30;99.90;;;;;;5072866;28;20229;-65
2021/03/07 05:20:44;;;;;;;16.08;11.82;;;-1.40;99.90;;;;;;5072765;28;20196;-66
2021/03/07 05:23:10;;;;;;;15.30;11.00;;;-1.40;99.90;;;;;;5071930;28;20403;-66
2021/03/07 05:25:37;;;;;;;16.50;10.63;;;-1.40;99.90;;;;;;5070817;28;20288;-65
2021/03/07 05:28:04;;;;;;;17.33;11.57;;;-1.50;99.90;;;;;;5070985;28;20376;-69
2021/03/07 05:30:31;;;;;;;18.90;13.43;;;-1.50;99.90;;;;;;5069632;28;20525;-65
2021/03/07 05:32:58;;;;;;;16.63;11.23;;;-1.40;99.90;;;;;;5071460;28;20276;-65
2021/03/07 05:35:25;;;;;;;15.55;11.27;;;-1.40;99.90;;;;;;5068670;28;20250;-69
2021/03/07 05:37:51;;;;;;;15.88;10.75;;;-1.40;99.90;;;;;;5072360;28;20341;-67
2021/03/07 05:40:18;;;;;;;18.35;10.60;;;-1.40;99.90;;;;;;5066670;28;20729;-62
2021/03/07 05:42:45;;;;;;;19.05;10.55;;;-1.40;99.90;;;;;;5068762;28;20276;-64
2021/03/07 05:45:12;;;;;;;15.55;10.52;;;-1.50;99.90;;;;;;5070765;28;20217;-63
2021/03/07 05:47:40;;;;;;;14.98;10.60;;;-1.40;99.90;;;;;;5071496;28;20276;-62
2021/03/07 05:50:08;;;;;;;17.40;10.90;;;-1.50;99.90;;;;;;5069807;28;20224;-68
2021/03/07 05:52:35;;;;;;;15.07;10.55;;;-1.50;99.90;;;;;;5076131;28;20295;-67
2021/03/07 05:55:03;;;;;;;15.35;10.60;;;-1.40;99.90;;;;;;5068942;28;20308;-65
2021/03/07 05:57:31;;;;;;;16.17;10.30;;;-1.40;99.90;;;;;;5070811;28;20201;-66
2021/03/07 06:00:00;;;;;;;17.52;11.00;;;-1.40;99.90;;;;;;5065271;28;20217;-64
2021/03/07 06:02:27;;;;;;;20.25;11.70;;;-1.50;99.90;;;;;;5068426;28;20305;-64
2021/03/07 06:04:55;;;;;;;19.30;11.73;;;-1.60;99.90;;;;;;5071022;28;20255;-67
2021/03/07 06:07:22;;;;;;;17.63;10.25;;;-1.60;99.90;;;;;;5071621;28;20294;-64
2021/03/07 06:09:48;;;;;;;15.90;9.77;;;-1.60;99.90;;;;;;5068254;28;20200;-67
2021/03/07 06:12:17;;;;;;;14.95;11.20;;;-1.50;99.90;;;;;;5070571;28;20205;-64
2021/03/07 06:14:45;;;;;;;10.18;2.78;;;-1.50;99.90;;;;;;5072677;28;20231;-52
2021/03/07 06:17:13;;;;;;;14.50;10.43;;;0.80;99.90;;;;;;5070255;28;20203;-70
2021/03/07 06:19:59;;;;;;;27.60;19.90;;;4.50;99.90;;;;;;5073820;28;20385;-66
2021/03/07 06:22:26;;;;;;;26.38;22.50;;;3.40;99.90;;;;;;5070809;28;20435;-68
2021/03/07 06:24:53;;;;;;;23.03;15.67;;;2.60;99.90;;;;;;5072975;28;20278;-70
2021/03/07 06:27:20;;;;;;;19.60;13.07;;;2.00;99.90;;;;;;5068205;28;20479;-65
2021/03/07 06:29:57;;;;;;;23.13;12.63;;;1.50;99.90;;;;;;5067193;28;20226;-65
2021/03/07 06:32:25;;;;;;;19.67;11.77;;;1.10;99.90;;;;;;5062538;28;20201;-66
2021/03/07 06:34:51;;;;;;;17.77;10.70;;;0.60;99.90;;;;;;5069058;28;20238;-64
2021/03/07 06:37:19;;;;;;;18.55;9.98;;;0.40;99.90;;;;;;5069992;28;20216;-69
2021/03/07 06:39:45;;;;;;;15.30;9.38;;;0.20;99.90;;;;;;5071573;28;20225;-67
2021/03/07 06:42:13;;;;;;;16.42;9.90;;;0.00;99.90;;;;;;5073224;28;20200;-66
2021/03/07 06:44:52;;;;;;;16.00;9.77;;;-0.10;99.90;;;;;;5064226;28;20275;-68
2021/03/07 06:47:18;;;;;;;16.63;10.43;;;-0.30;99.90;;;;;;5065272;28;20202;-63
2021/03/07 06:49:45;;;;;;;17.88;9.68;;;-0.30;99.90;;;;;;5049385;28;20288;-72
2021/03/07 06:52:16;;;;;;;15.40;9.32;;;-0.40;99.90;;;;;;5061042;28;20670;-65
2021/03/07 06:54:45;;;;;;;16.77;10.25;;;-0.50;99.90;;;;;;5070187;28;20201;-70
2021/03/07 06:57:12;;;;;;;17.15;9.98;;;-0.40;99.90;;;;;;5069089;28;20596;-65
2021/03/07 06:59:39;;;;;;;14.93;9.40;;;-0.30;99.90;;;;;;5078386;28;20260;-67
2021/03/07 07:02:11;;;;;;;16.55;9.20;;;-0.30;99.90;;;;;;5068959;28;20312;-65
2021/03/07 07:04:43;;;;;;;14.65;9.85;;;-0.20;99.90;;;;;;5082334;28;20199;-66
2021/03/07 07:07:12;;;;;;;15.55;9.98;;;-0.20;99.90;;;;;;5070931;28;20324;-68
2021/03/07 07:09:39;;;;;;;17.60;9.80;;;-0.20;99.90;;;;;;5086130;28;20273;-66
2021/03/07 07:12:08;;;;;;;15.70;9.20;;;-0.20;99.90;;;;;;5081554;28;20609;-67
2021/03/07 07:14:40;;;;;;;13.20;9.32;;;-0.20;99.90;;;;;;5069677;28;20202;-63
2021/03/07 07:17:08;;;;;;;17.80;11.13;;;-0.10;99.90;;;;;;5070857;28;20648;-67
2021/03/07 07:19:35;;;;;;;17.05;10.40;;;-0.10;99.90;;;;;;5064207;28;20261;-66
2021/03/07 07:22:02;;;;;;;15.60;10.98;;;0.00;99.90;;;;;;5076555;28;20683;-67
2021/03/07 07:24:28;;;;;;;21.17;11.68;;;0.00;99.90;;;;;;5070217;28;20579;-68
2021/03/07 07:26:57;;;;;;;16.17;10.20;;;0.10;99.90;;;;;;5070731;28;20273;-65
2021/03/07 07:29:25;;;;;;;17.73;10.52;;;0.30;99.90;;;;;;5069633;28;20819;-64
2021/03/07 07:31:57;;;;;;;16.88;10.05;;;0.40;99.90;;;;;;5064113;28;20229;-64
2021/03/07 07:34:31;;;;;;;15.43;9.77;;;0.50;99.90;;;;;;5060890;28;20196;-62
2021/03/07 07:37:03;;;;;;;18.23;10.57;;;0.60;99.90;;;;;;5071293;28;20287;-66
2021/03/07 07:39:32;;;;;;;16.73;9.57;;;0.70;99.90;;;;;;5070088;28;20251;-69
2021/03/07 07:42:16;;;;;;;14.88;9.80;;;0.80;99.90;;;;;;5071088;28;20627;-65
2021/03/07 07:44:45;;;;;;;15.80;9.70;;;0.90;99.90;;;;;;5070989;28;20206;-65
2021/03/07 07:47:11;;;;;;;18.65;10.38;;;1.10;99.90;;;;;;5065577;28;20192;-65
2021/03/07 07:49:42;;;;;;;18.67;10.90;;;1.20;99.90;;;;;;5067248;28;20532;-63
2021/03/07 07:52:37;;;;;;;15.32;9.30;;;1.50;99.90;;;;;;5070984;28;20707;-64
2021/03/07 07:55:12;;;;;;;15.65;9.65;;;1.80;99.90;;;;;;5070631;28;20200;-67
2021/03/07 07:57:43;;;;;;;18.40;10.25;;;2.00;99.90;;;;;;5061065;28;20203;-66
2021/03/07 08:00:12;;;;;;;16.10;10.40;;;2.00;99.90;;;;;;5070643;28;20208;-66
2021/03/07 08:02:55;;;;;;;16.50;10.70;;;2.10;99.90;;;;;;5081628;28;20196;-66
2021/03/07 08:05:43;;;;;;;16.40;10.68;;;2.10;99.90;;;;;;5070446;28;20293;-67
2021/03/07 08:08:15;;;;;;;14.95;10.23;;;2.10;99.90;;;;;;5079167;28;20286;-64
2021/03/07 08:10:49;;;;;;;16.45;10.75;;;2.20;99.90;;;;;;5069459;28;20192;-68
2021/03/07 08:13:31;;;;;;;15.45;10.63;;;2.20;99.90;;;;;;5070868;28;20210;-67
2021/03/07 08:15:59;;;;;;;14.80;10.60;;;2.30;99.90;;;;;;5061297;28;20279;-68
2021/03/07 08:18:50;;;;;;;16.03;10.70;;;2.40;99.90;;;;;;5057820;28;21042;-68
2021/03/07 08:21:18;;;;;;;14.57;10.30;;;2.70;99.90;;;;;;5063628;28;20462;-69
2021/03/07 08:24:05;;;;;;;17.10;10.50;;;3.40;99.90;;;;;;5064972;28;20414;-69
2021/03/07 08:26:53;;;;;;;13.90;9.57;;;4.00;99.90;;;;;;5065996;28;20564;-68
2021/03/07 08:29:44;;;;;;;20.73;10.50;;;4.70;99.90;;;;;;5043895;28;20484;-66
2021/03/07 08:32:42;;;;;;;13.73;9.70;;;5.40;99.90;;;;;;5049692;28;20419;-65
2021/03/07 08:35:14;;;;;;;14.30;9.27;;;6.20;99.90;;;;;;5001552;28;20969;-68
2021/03/07 08:37:41;;;;;;;12.83;9.37;;;7.20;99.90;;;;;;5062189;28;20441;-70
2021/03/07 08:40:30;;;;;;;14.93;8.43;;;8.30;99.90;;;;;;5073734;28;20546;-68
2021/03/07 08:42:58;;;;;;;16.40;9.23;;;9.60;99.90;;;;;;5069672;28;20487;-70
2021/03/07 08:45:25;;;;;;;13.40;9.20;;;10.90;99.90;;;;;;5071429;28;20848;-67
2021/03/07 08:47:54;;;;;;;1443.87;768.03;;;11.50;99.90;;;;;;5072860;28;20453;-68
2021/03/07 08:50:21;;;;;;;1999.90;999.90;;;12.30;99.90;;;;;;5072755;28;20995;-68
2021/03/07 08:52:48;;;;;;;769.27;422.30;;;13.00;99.90;;;;;;5073073;28;20443;-65
2021/03/07 08:55:16;;;;;;;657.70;610.57;;;13.50;99.90;;;;;;5071575;28;21027;-68
2021/03/07 08:57:47;;;;;;;196.93;181.20;;;14.40;99.90;;;;;;5071515;28;20447;-66
2021/03/07 09:00:16;;;;;;;1404.63;728.10;;;15.30;99.90;;;;;;5073718;28;20545;-67
2021/03/07 09:02:44;;;;;;;1419.37;746.43;;;15.60;95.20;;;;;;5072237;28;20843;-67
2021/03/07 09:05:27;;;;;;;57.33;25.43;;;15.70;93.20;;;;;;5072165;28;20982;-66
2021/03/07 09:08:00;;;;;;;8.23;3.93;;;15.20;90.30;;;;;;5066325;28;20451;-65
2021/03/07 09:10:34;;;;;;;8.10;3.97;;;15.60;90.00;;;;;;5072155;28;21321;-64
2021/03/07 09:13:08;;;;;;;6.90;3.83;;;16.10;89.00;;;;;;5073818;28;20447;-64
2021/03/07 09:15:35;;;;;;;7.20;3.67;;;17.20;85.70;;;;;;5073110;28;20454;-66
2021/03/07 09:18:02;;;;;;;6.40;3.30;;;17.40;78.90;;;;;;5068664;28;20476;-71
2021/03/07 09:20:45;;;;;;;7.47;3.80;;;17.00;74.30;;;;;;5075171;28;20528;-66
2021/03/07 09:23:32;;;;;;;6.97;3.47;;;16.20;72.60;;;;;;5079240;28;20501;-69
2021/03/07 09:26:00;;;;;;;5.80;2.70;;;16.00;70.30;;;;;;5075021;28;20972;-65
2021/03/07 09:28:34;;;;;;;7.13;3.27;;;16.80;71.90;;;;;;5076061;28;20542;-66
2021/03/07 09:31:02;;;;;;;7.70;3.97;;;17.80;73.80;;;;;;5057859;28;20446;-67
2021/03/07 09:33:29;;;;;;;6.57;3.07;;;16.80;67.00;;;;;;5058942;28;20447;-59
2021/03/07 09:36:04;;;;;;;6.07;2.80;;;16.50;66.70;;;;;;5067045;28;20522;-49
2021/03/07 09:38:45;;;;;;;7.83;3.07;;;18.90;99.90;;;;;;5058453;28;20479;-50
2021/03/07 09:41:13;;;;;;;6.00;2.60;;;19.80;91.00;;;;;;5068955;28;20874;-48
2021/03/07 09:43:41;;;;;;;7.20;3.40;;;20.50;79.10;;;;;;5062491;28;20534;-67
2021/03/07 09:46:09;;;;;;;7.03;2.60;;;20.50;64.60;;;;;;5063078;28;20440;-68
2021/03/07 09:48:37;;;;;;;8.43;2.50;;;19.80;56.80;;;;;;5065780;28;20897;-71
2021/03/07 09:51:06;;;;;;;6.00;2.73;;;20.10;58.70;;;;;;5065993;28;20858;-68
2021/03/07 09:53:37;;;;;;;7.70;3.47;;;16.70;57.50;;;;;;5064192;28;20531;-66
2021/03/07 09:56:04;;;;;;;8.80;3.50;;;16.00;58.50;;;;;;5060810;28;20454;-68
2021/03/07 09:58:37;;;;;;;6.70;3.20;;;14.50;62.50;;;;;;5057140;28;20994;-70
2021/03/07 10:01:06;;;;;;;7.07;2.87;;;13.10;64.20;;;;;;5071474;28;20439;-67
2021/03/07 10:03:33;;;;;;;6.10;3.13;;;12.00;65.80;;;;;;5075151;28;20439;-70
2021/03/07 10:06:08;;;;;;;5.93;3.30;;;10.50;67.60;;;;;;5067703;28;20978;-67
2021/03/07 10:08:36;;;;;;;7.50;3.13;;;9.60;73.70;;;;;;5071572;28;20863;-68
2021/03/07 10:11:22;;;;;;;5.70;2.83;;;9.30;75.20;;;;;;5061405;28;20457;-67
2021/03/07 10:14:00;;;;;;;5.63;3.20;;;8.70;77.50;;;;;;5062671;28;20451;-68
2021/03/07 10:16:28;;;;;;;7.60;3.40;;;8.70;81.80;;;;;;5070481;28;20455;-67
2021/03/07 10:19:10;;;;;;;7.70;3.47;;;8.80;82.40;;;;;;5065772;28;20503;-69
2021/03/07 10:21:38;;;;;;;7.10;3.47;;;9.00;84.90;;;;;;5070747;28;20439;-69
2021/03/07 10:24:16;;;;;;;7.40;4.03;;;9.10;86.70;;;;;;5065301;28;21004;-70
2021/03/07 10:26:44;;;;;;;8.10;4.03;;;9.50;85.30;;;;;;5064097;28;20790;-64
2021/03/07 10:29:20;;;;;;;9.60;3.90;;;9.70;83.40;;;;;;5067408;28;20457;-70
2021/03/07 10:32:07;;;;;;;6.33;3.70;;;10.50;82.60;;;;;;5069866;28;20504;-65
2021/03/07 10:34:36;;;;;;;5.80;3.10;;;10.50;81.70;;;;;;5070914;28;20530;-67
2021/03/07 10:37:05;;;;;;;6.03;3.20;;;12.60;84.70;;;;;;5070488;28;20482;-64
2021/03/07 10:39:31;;;;;;;7.77;3.50;;;13.80;76.10;;;;;;5071487;28;20483;-67
2021/03/07 10:42:09;;;;;;;5.63;3.20;;;14.10;73.60;;;;;;5066692;28;20452;-70
2021/03/07 10:44:37;;;;;;;7.17;3.50;;;13.60;74.30;;;;;;5071518;28;20447;-67
2021/03/07 10:47:19;;;;;;;6.37;3.57;;;13.40;73.00;;;;;;5070537;28;20852;-67
2021/03/07 10:49:47;;;;;;;6.23;3.70;;;12.40;73.50;;;;;;5069163;28;20481;-65
2021/03/07 10:52:14;;;;;;;8.97;4.97;;;12.20;73.60;;;;;;5071130;28;20522;-64
2021/03/07 10:54:41;;;;;;;6.13;3.80;;;10.90;73.30;;;;;;5072013;28;20466;-62
2021/03/07 10:57:09;;;;;;;7.00;3.80;;;11.50;75.10;;;;;;5070494;28;20467;-64
2021/03/07 10:59:36;;;;;;;7.73;4.30;;;11.40;76.00;;;;;;5070400;28;20502;-62
2021/03/07 11:02:05;;;;;;;7.10;4.90;;;11.40;74.30;;;;;;5071435;28;20546;-68
2021/03/07 11:04:32;;;;;;;7.97;5.33;;;12.60;70.70;;;;;;5054452;28;20959;-64
2021/03/07 11:06:58;;;;;;;7.57;4.60;;;13.80;70.00;;;;;;5054430;28;20534;-67
2021/03/07 11:09:25;;;;;;;7.30;4.33;;;14.30;68.70;;;;;;5057263;28;20596;-68
2021/03/07 11:11:52;;;;;;;6.10;4.00;;;13.90;66.30;;;;;;5061687;28;20543;-62
2021/03/07 11:14:19;;;;;;;8.53;4.20;;;13.10;69.40;;;;;;5058351;28;20875;-68
2021/03/07 11:16:45;;;;;;;6.50;3.33;;;13.10;68.90;;;;;;5055594;28;20456;-69
2021/03/07 11:19:12;;;;;;;5.50;3.40;;;12.90;68.80;;;;;;5056415;28;20542;-72
2021/03/07 11:21:38;;;;;;;6.13;3.60;;;12.00;70.20;;;;;;5053078;28;20455;-66
2021/03/07 11:24:06;;;;;;;7.43;4.00;;;11.80;71.30;;;;;;5065659;28;20450;-65
2021/03/07 11:26:33;;;;;;;7.27;3.30;;;11.10;72.80;;;;;;5065875;28;20443;-64
2021/03/07 11:29:00;;;;;;;7.10;3.30;;;11.10;72.90;;;;;;5065578;28;20485;-66
2021/03/07 11:31:26;;;;;;;6.07;3.77;;;10.60;75.00;;;;;;5067524;28;20470;-61
2021/03/07 11:33:53;;;;;;;7.30;3.30;;;10.10;77.50;;;;;;5059072;28;20792;-64
2021/03/07 11:36:19;;;;;;;5.90;3.37;;;10.00;77.20;;;;;;5068204;28;20451;-60
2021/03/07 11:38:46;;;;;;;5.80;3.70;;;9.10;83.30;;;;;;5069135;28;20581;-63
2021/03/07 11:41:12;;;;;;;6.93;3.37;;;9.30;83.20;;;;;;5067214;28;20451;-64
2021/03/07 11:43:40;;;;;;;9.83;4.00;;;9.70;83.30;;;;;;5070859;28;20507;-67
2021/03/07 11:46:06;;;;;;;6.03;3.63;;;9.70;82.90;;;;;;5065537;28;20452;-63
2021/03/07 11:48:33;;;;;;;6.23;3.87;;;9.80;81.20;;;;;;5066048;28;20475;-64
2021/03/07 11:50:59;;;;;;;7.40;4.80;;;9.80;80.30;;;;;;5082325;28;20533;-64
2021/03/07 11:53:26;;;;;;;5.97;4.00;;;10.10;76.70;;;;;;5073625;28;20439;-66
2021/03/07 11:55:53;;;;;;;5.17;3.50;;;9.80;80.50;;;;;;5087874;28;20446;-64
2021/03/07 11:58:19;;;;;;;8.33;4.60;;;11.80;82.10;;;;;;5067765;28;20438;-63
2021/03/07 12:00:47;;;;;;;7.10;5.53;;;15.60;73.60;;;;;;5063719;28;20847;-62
2021/03/07 12:03:13;;;;;;;7.67;5.10;;;19.60;62.40;;;;;;5076010;28;20545;-63
2021/03/07 12:05:40;;;;;;;7.03;4.40;;;20.90;59.80;;;;;;5068802;28;20673;-66
2021/03/07 12:08:06;;;;;;;6.50;4.00;;;22.70;58.40;;;;;;5072000;28;20472;-70
2021/03/07 12:10:33;;;;;;;7.50;4.53;;;24.10;55.50;;;;;;5069222;28;20451;-68
2021/03/07 12:12:59;;;;;;;6.73;4.10;;;24.10;51.90;;;;;;5069394;28;20526;-67
2021/03/07 12:15:26;;;;;;;8.90;4.20;;;24.30;47.80;;;;;;5070879;28;20449;-66
2021/03/07 12:17:53;;;;;;;7.83;3.90;;;21.70;46.70;;;;;;5053604;28;20540;-67
2021/03/07 12:20:20;;;;;;;7.60;4.03;;;19.90;48.10;;;;;;5067221;28;20482;-63
2021/03/07 12:22:47;;;;;;;7.27;4.57;;;17.10;48.90;;;;;;5068969;28;20879;-65
2021/03/07 12:25:15;;;;;;;8.33;3.90;;;15.00;50.90;;;;;;5068900;28;20447;-67
2021/03/07 12:27:42;;;;;;;7.70;3.93;;;14.30;52.00;;;;;;5050817;28;20448;-68
2021/03/07 12:30:10;;;;;;;6.50;3.47;;;13.50;53.00;;;;;;5067817;28;20475;-66
2021/03/07 12:32:36;;;;;;;6.13;3.03;;;13.10;54.10;;;;;;5062881;28;20539;-64
2021/03/07 12:35:05;;;;;;;6.47;3.20;;;14.50;54.60;;;;;;5066597;28;20466;-68
2021/03/07 12:37:32;;;;;;;6.20;3.00;;;17.50;54.30;;;;;;5050011;28;20463;-65
2021/03/07 12:39:58;;;;;;;6.20;3.10;;;20.00;52.30;;;;;;5062383;28;20996;-63
2021/03/07 12:42:25;;;;;;;6.10;3.13;;;21.90;51.00;;;;;;5067749;28;20526;-70
2021/03/07 12:44:53;;;;;;;5.70;2.10;;;22.30;49.00;;;;;;5061514;28;20452;-63
2021/03/07 12:47:20;;;;;;;5.57;2.40;;;24.70;48.90;;;;;;5063795;28;20504;-65